Time;durP1;ratioP1;P1;durP2;ratioP2;P2;SDS_P1;SDS_P2;PMS_P1;PMS_P2;Temp;Humidity;BMP_temperature;BMP_pressure;BME280_temperature;BME280_humidity;BME280_pressure;Samples;Min_cycle;Max_cycle;Signal;HPM_P1;HPM_P2
2023/07/18 00:02:23;;;;;;;12.57;9.00;;;15.60;98.00;;;;;;5012949;28;20520;-62
2023/07/18 00:04:52;;;;;;;11.50;4.77;;;15.60;97.70;;;;;;5050558;28;20487;-62
2023/07/18 00:07:20;;;;;;;15.80;9.73;;;15.60;97.60;;;;;;5034775;28;20482;-62
2023/07/18 00:09:47;;;;;;;7.27;5.00;;;15.70;97.30;;;;;;5035014;28;20501;-62
2023/07/18 00:12:14;;;;;;;13.27;8.43;;;15.70;97.00;;;;;;5043717;28;20489;-61
2023/07/18 00:14:41;;;;;;;9.33;5.53;;;15.80;97.10;;;;;;5025146;28;20483;-61
2023/07/18 00:17:08;;;;;;;13.03;7.20;;;15.80;97.40;;;;;;5062724;28;20918;-61
2023/07/18 00:19:35;;;;;;;12.07;6.00;;;15.80;97.30;;;;;;5049313;28;20521;-62
2023/07/18 00:22:02;;;;;;;8.93;5.17;;;15.70;96.70;;;;;;5046724;28;20631;-62
2023/07/18 00:24:30;;;;;;;13.07;7.07;;;15.70;97.00;;;;;;5031474;28;20831;-61
2023/07/18 00:26:57;;;;;;;9.60;6.30;;;15.80;97.30;;;;;;5011006;28;20898;-62
2023/07/18 00:29:24;;;;;;;10.43;7.83;;;15.80;97.40;;;;;;5032805;28;21014;-62
2023/07/18 00:31:51;;;;;;;8.57;3.90;;;15.80;97.30;;;;;;5056738;28;21089;-62
2023/07/18 00:34:18;;;;;;;14.73;9.83;;;15.80;96.80;;;;;;5050511;28;20872;-62
2023/07/18 00:36:45;;;;;;;7.67;5.10;;;15.80;96.60;;;;;;5038476;28;21003;-61
2023/07/18 00:39:13;;;;;;;15.10;8.20;;;15.80;96.60;;;;;;5039381;28;20530;-62
2023/07/18 00:41:42;;;;;;;12.83;6.40;;;15.80;96.60;;;;;;5017326;27;20479;-62
2023/07/18 00:44:09;;;;;;;8.77;5.73;;;15.70;96.40;;;;;;5031330;28;20482;-62
2023/07/18 00:46:36;;;;;;;7.23;6.13;;;15.70;96.20;;;;;;5053966;28;20505;-62
2023/07/18 00:49:03;;;;;;;7.33;5.20;;;15.70;96.30;;;;;;5053753;28;20475;-62
2023/07/18 00:51:31;;;;;;;8.13;6.00;;;15.60;96.70;;;;;;5053951;28;20486;-61
2023/07/18 00:53:58;;;;;;;7.40;5.90;;;15.50;96.90;;;;;;5017121;28;20494;-61
2023/07/18 00:56:25;;;;;;;12.80;9.27;;;15.50;96.80;;;;;;5024911;28;21021;-62
2023/07/18 00:58:54;;;;;;;17.73;12.67;;;15.40;96.50;;;;;;5044806;28;20475;-61
2023/07/18 01:01:21;;;;;;;12.23;7.97;;;15.40;97.20;;;;;;5051022;28;20475;-62
2023/07/18 01:03:48;;;;;;;8.07;6.43;;;15.40;97.50;;;;;;5022060;28;21007;-62
2023/07/18 01:06:15;;;;;;;14.50;8.90;;;15.40;97.10;;;;;;5016482;28;20476;-61
2023/07/18 01:08:42;;;;;;;10.10;6.07;;;15.40;97.40;;;;;;5023022;28;20506;-61
2023/07/18 01:11:09;;;;;;;6.77;5.27;;;15.40;97.40;;;;;;5021511;28;20936;-62
2023/07/18 01:13:36;;;;;;;10.07;5.47;;;15.40;97.70;;;;;;5003121;28;20492;-62
2023/07/18 01:16:04;;;;;;;8.73;5.93;;;15.40;97.80;;;;;;5006798;28;20932;-62
2023/07/18 01:18:31;;;;;;;8.70;6.17;;;15.40;97.60;;;;;;5030783;28;20935;-62
2023/07/18 01:20:59;;;;;;;4.70;4.00;;;15.50;98.00;;;;;;5033185;28;20472;-61
2023/07/18 01:23:28;;;;;;;13.67;7.90;;;15.50;98.00;;;;;;5020721;28;20483;-61
2023/07/18 01:25:55;;;;;;;10.10;6.03;;;15.50;98.20;;;;;;5016863;28;20479;-61
2023/07/18 01:28:22;;;;;;;9.53;6.50;;;15.50;97.80;;;;;;5012124;28;20582;-61
2023/07/18 01:30:49;;;;;;;11.67;5.07;;;15.50;97.60;;;;;;5024573;28;20851;-62
2023/07/18 01:33:16;;;;;;;15.70;9.20;;;15.60;97.60;;;;;;5007971;28;20471;-62
2023/07/18 01:35:43;;;;;;;12.70;6.00;;;15.50;97.30;;;;;;5049160;28;20482;-62
2023/07/18 01:38:10;;;;;;;8.07;4.60;;;15.60;97.30;;;;;;5029067;28;20480;-61
2023/07/18 01:40:38;;;;;;;6.10;4.90;;;15.50;97.60;;;;;;5019083;28;20850;-61
2023/07/18 01:43:05;;;;;;;14.07;5.47;;;15.60;98.00;;;;;;5019626;28;20840;-62
2023/07/18 01:45:32;;;;;;;7.90;5.60;;;15.60;97.20;;;;;;5019592;28;20834;-62
2023/07/18 01:47:59;;;;;;;4.93;4.40;;;15.60;97.40;;;;;;5018298;28;20487;-61
2023/07/18 01:50:26;;;;;;;9.77;7.33;;;15.60;97.30;;;;;;4995328;28;20944;-62
2023/07/18 01:52:53;;;;;;;6.70;4.60;;;15.60;97.20;;;;;;5029381;28;21242;-62
2023/07/18 01:55:20;;;;;;;11.80;8.30;;;15.50;97.10;;;;;;5038333;28;20767;-62
2023/07/18 01:57:49;;;;;;;6.20;5.00;;;15.40;97.20;;;;;;5007864;28;21006;-61
2023/07/18 02:00:18;;;;;;;11.47;8.03;;;14.90;97.40;;;;;;5026595;28;20584;-62
2023/07/18 02:02:48;;;;;;;6.30;5.00;;;14.80;97.90;;;;;;5018680;28;20654;-61
2023/07/18 02:05:16;;;;;;;10.63;6.87;;;14.70;98.40;;;;;;5005173;28;20538;-61
2023/07/18 02:07:43;;;;;;;13.40;5.70;;;14.60;98.30;;;;;;5030720;28;20488;-61
2023/07/18 02:10:10;;;;;;;7.60;5.17;;;14.60;98.40;;;;;;4998332;28;20491;-61
2023/07/18 02:12:37;;;;;;;9.43;5.93;;;14.70;98.60;;;;;;5021308;28;20519;-61
2023/07/18 02:15:07;;;;;;;8.57;4.57;;;14.70;98.40;;;;;;5025373;28;20815;-60
2023/07/18 02:17:34;;;;;;;7.50;4.97;;;14.70;98.20;;;;;;5017311;28;20867;-61
2023/07/18 02:20:06;;;;;;;7.77;5.30;;;14.70;98.60;;;;;;5017064;28;20485;-62
2023/07/18 02:22:34;;;;;;;10.10;5.07;;;14.70;98.40;;;;;;5025812;28;20477;-62
2023/07/18 02:25:02;;;;;;;6.07;5.10;;;14.60;98.70;;;;;;5018038;28;20522;-61
2023/07/18 02:27:29;;;;;;;8.00;6.13;;;14.70;98.40;;;;;;5023343;28;20511;-61
2023/07/18 02:29:56;;;;;;;5.40;4.47;;;14.70;98.20;;;;;;5008315;28;20521;-61
2023/07/18 02:32:24;;;;;;;14.57;8.00;;;14.70;98.50;;;;;;5051414;28;20568;-62
2023/07/18 02:34:51;;;;;;;6.23;4.87;;;14.10;97.80;;;;;;5025566;28;20480;-62
2023/07/18 02:37:18;;;;;;;11.87;8.33;;;14.60;97.80;;;;;;5051807;28;20490;-61
2023/07/18 02:39:46;;;;;;;7.93;5.03;;;14.60;97.50;;;;;;5046930;28;20478;-61
2023/07/18 02:42:12;;;;;;;9.63;6.27;;;14.60;97.30;;;;;;5056435;28;20475;-61
2023/07/18 02:44:39;;;;;;;11.80;5.50;;;14.60;97.50;;;;;;5057540;28;20492;-62
2023/07/18 02:47:06;;;;;;;6.73;3.87;;;14.60;97.60;;;;;;5044482;28;21055;-62
2023/07/18 02:49:35;;;;;;;6.37;4.20;;;14.30;98.10;;;;;;5039386;28;20492;-62
2023/07/18 02:52:02;;;;;;;7.67;4.33;;;14.20;98.40;;;;;;5066391;28;20474;-61
2023/07/18 02:54:35;;;;;;;11.23;6.00;;;14.20;98.40;;;;;;5046059;28;20483;-61
2023/07/18 02:57:02;;;;;;;8.03;5.17;;;14.20;98.30;;;;;;5029608;28;20483;-61
2023/07/18 02:59:29;;;;;;;10.60;7.03;;;14.00;98.80;;;;;;5019802;28;21310;-61
2023/07/18 03:01:56;;;;;;;8.83;5.70;;;13.90;98.90;;;;;;5035424;28;20491;-61
2023/07/18 03:04:24;;;;;;;12.83;7.10;;;14.00;98.70;;;;;;5029174;28;20593;-60
2023/07/18 03:06:52;;;;;;;6.30;5.00;;;14.00;98.90;;;;;;5060371;28;20472;-61
2023/07/18 03:09:21;;;;;;;12.17;8.60;;;14.00;99.30;;;;;;5053245;28;21204;-62
2023/07/18 03:11:50;;;;;;;5.73;4.77;;;14.10;98.90;;;;;;5050860;28;20479;-62
2023/07/18 03:14:17;;;;;;;10.90;7.83;;;14.20;98.90;;;;;;5049568;28;24371;-62
2023/07/18 03:16:45;;;;;;;7.07;4.70;;;14.20;98.90;;;;;;5055152;28;20481;-61
2023/07/18 03:19:12;;;;;;;12.47;6.77;;;14.30;99.20;;;;;;5040554;28;20495;-61
2023/07/18 03:21:39;;;;;;;13.03;6.70;;;14.30;98.90;;;;;;5041435;28;20481;-61
2023/07/18 03:24:07;;;;;;;12.30;6.07;;;14.30;98.80;;;;;;5033669;28;20905;-61
2023/07/18 03:26:36;;;;;;;9.90;5.00;;;14.40;98.20;;;;;;5034842;28;20480;-61
2023/07/18 03:29:04;;;;;;;7.40;4.97;;;14.40;98.40;;;;;;5031885;28;20475;-61
2023/07/18 03:31:31;;;;;;;9.37;6.00;;;14.40;98.50;;;;;;5000952;28;20479;-61
2023/07/18 03:34:04;;;;;;;10.97;5.00;;;14.40;98.70;;;;;;5021622;28;21108;-61
2023/07/18 03:36:31;;;;;;;13.73;7.03;;;14.40;98.40;;;;;;5058450;28;20469;-61
2023/07/18 03:38:58;;;;;;;8.00;5.80;;;14.40;98.60;;;;;;5055345;28;20494;-61
2023/07/18 03:41:26;;;;;;;11.83;7.47;;;14.40;98.80;;;;;;5051909;28;21216;-61
2023/07/18 03:43:53;;;;;;;7.63;4.57;;;14.40;98.80;;;;;;5008784;28;20475;-62
2023/07/18 03:46:21;;;;;;;14.00;7.50;;;14.40;98.80;;;;;;5024555;28;20491;-61
2023/07/18 03:48:48;;;;;;;10.20;5.57;;;14.40;98.90;;;;;;5035887;28;20470;-62
2023/07/18 03:51:15;;;;;;;9.73;7.30;;;14.40;99.20;;;;;;5025994;28;20490;-61
2023/07/18 03:53:43;;;;;;;9.40;5.47;;;14.40;99.30;;;;;;5027437;28;20499;-61
2023/07/18 03:56:11;;;;;;;6.67;5.13;;;14.50;99.40;;;;;;5024903;28;20520;-61
2023/07/18 03:58:40;;;;;;;8.73;6.27;;;15.60;99.90;;;;;;5023587;28;20485;-61
2023/07/18 04:01:08;;;;;;;5.23;4.20;;;14.40;99.40;;;;;;5005963;28;20474;-61
2023/07/18 04:03:35;;;;;;;9.33;5.90;;;14.40;99.60;;;;;;5023542;28;20494;-60
2023/07/18 04:06:02;;;;;;;9.80;5.67;;;14.40;99.70;;;;;;5035699;28;20478;-60
2023/07/18 04:08:29;;;;;;;6.00;4.87;;;14.40;99.80;;;;;;5014339;28;20502;-60
2023/07/18 04:10:58;;;;;;;6.30;4.23;;;14.50;99.90;;;;;;5040690;28;20723;-60
2023/07/18 04:13:25;;;;;;;16.67;8.87;;;14.50;99.90;;;;;;5000306;28;20480;-60
2023/07/18 04:15:54;;;;;;;8.13;6.03;;;14.60;99.90;;;;;;5031765;28;20485;-61
2023/07/18 04:18:21;;;;;;;13.37;8.20;;;14.70;99.90;;;;;;5025177;28;20477;-60
2023/07/18 04:20:49;;;;;;;5.50;4.40;;;14.70;99.90;;;;;;5005630;28;20483;-60
2023/07/18 04:23:15;;;;;;;12.70;8.47;;;14.70;99.90;;;;;;5031864;28;20482;-61
2023/07/18 04:25:56;;;;;;;7.70;6.53;;;14.70;99.90;;;;;;5031134;28;20483;-61
2023/07/18 04:28:23;;;;;;;14.30;9.00;;;14.80;99.90;;;;;;5000745;28;20472;-61
2023/07/18 04:30:50;;;;;;;9.47;5.40;;;14.90;99.90;;;;;;5027163;28;20792;-61
2023/07/18 04:33:18;;;;;;;13.00;9.23;;;14.90;99.90;;;;;;4994841;28;20562;-61
2023/07/18 04:35:45;;;;;;;14.17;5.07;;;15.00;99.90;;;;;;5032866;28;21043;-61
2023/07/18 04:38:13;;;;;;;18.83;7.50;;;;;;;;;;5027788;28;20859;-61
2023/07/18 04:40:40;;;;;;;10.93;6.70;;;15.10;99.90;;;;;;5034509;28;20475;-61
2023/07/18 04:43:08;;;;;;;15.57;6.00;;;15.20;99.90;;;;;;5031470;28;20490;-61
2023/07/18 04:45:41;;;;;;;11.00;7.60;;;15.30;99.90;;;;;;5009470;28;20481;-61
2023/07/18 04:48:08;;;;;;;10.90;6.30;;;15.30;99.90;;;;;;5024166;28;20491;-61
2023/07/18 04:50:36;;;;;;;8.50;5.60;;;15.30;99.90;;;;;;5021472;28;20570;-61
2023/07/18 04:53:04;;;;;;;7.20;4.90;;;15.40;99.90;;;;;;5018772;28;20492;-61
2023/07/18 04:55:30;;;;;;;22.20;6.60;;;15.40;99.90;;;;;;5023279;28;20552;-61
2023/07/18 04:57:57;;;;;;;7.47;5.83;;;15.50;99.90;;;;;;5015886;28;20472;-61
2023/07/18 05:00:24;;;;;;;8.80;6.50;;;15.70;99.90;;;;;;5042051;28;21065;-62
2023/07/18 05:02:51;;;;;;;12.53;6.10;;;15.70;99.90;;;;;;5044560;28;20495;-62
2023/07/18 05:05:19;;;;;;;10.03;7.80;;;15.70;99.90;;;;;;5037850;28;20478;-62
2023/07/18 05:07:48;;;;;;;6.87;5.30;;;15.80;99.90;;;;;;5012440;28;20601;-62
2023/07/18 05:10:15;;;;;;;12.77;7.03;;;15.90;99.90;;;;;;5029498;28;20484;-61
2023/07/18 05:12:42;;;;;;;10.23;7.60;;;16.00;99.90;;;;;;5038693;28;20700;-61
2023/07/18 05:15:10;;;;;;;11.30;6.47;;;15.90;99.90;;;;;;5023766;28;20487;-62
2023/07/18 05:17:37;;;;;;;7.77;5.17;;;16.00;99.90;;;;;;5033350;28;20483;-62
2023/07/18 05:20:05;;;;;;;6.27;5.40;;;16.10;99.90;;;;;;5028293;28;20886;-62
2023/07/18 05:22:32;;;;;;;6.03;4.53;;;14.50;99.90;;;;;;5024411;28;20483;-62
2023/07/18 05:25:00;;;;;;;18.03;6.50;;;16.30;99.90;;;;;;5024972;28;21052;-61
2023/07/18 05:27:27;;;;;;;8.40;5.20;;;16.30;99.90;;;;;;5034140;28;20567;-61
2023/07/18 05:29:56;;;;;;;13.20;4.73;;;16.40;99.90;;;;;;5026390;28;20498;-61
2023/07/18 05:32:23;;;;;;;15.57;7.83;;;16.50;99.90;;;;;;5033680;28;20616;-62
2023/07/18 05:34:50;;;;;;;7.37;6.57;;;16.40;99.90;;;;;;5012378;28;20714;-61
2023/07/18 05:37:17;;;;;;;10.33;7.17;;;16.40;99.90;;;;;;5029489;28;20498;-61
2023/07/18 05:39:44;;;;;;;9.47;5.53;;;16.50;99.90;;;;;;5024809;28;21006;-61
2023/07/18 05:42:12;;;;;;;6.77;5.57;;;16.50;99.90;;;;;;5005833;28;20823;-61
2023/07/18 05:44:39;;;;;;;13.27;6.60;;;16.50;99.90;;;;;;5021891;28;20871;-61
2023/07/18 05:47:06;;;;;;;11.03;6.10;;;16.70;99.90;;;;;;5031961;28;20479;-61
2023/07/18 05:49:33;;;;;;;9.10;5.67;;;16.60;99.90;;;;;;5028068;28;20487;-61
2023/07/18 05:52:00;;;;;;;11.20;6.27;;;16.70;99.90;;;;;;5021723;28;20479;-61
2023/07/18 05:54:29;;;;;;;8.23;6.63;;;16.80;99.90;;;;;;5032097;28;21030;-61
2023/07/18 05:56:55;;;;;;;11.93;5.90;;;16.90;99.90;;;;;;5049971;28;20496;-61
2023/07/18 05:59:24;;;;;;;16.43;7.60;;;17.00;99.90;;;;;;5034820;28;20476;-61
2023/07/18 06:01:50;;;;;;;7.50;5.53;;;17.10;99.90;;;;;;5026050;28;20820;-61
2023/07/18 06:04:17;;;;;;;10.03;8.03;;;17.10;99.90;;;;;;5015734;28;20822;-61
2023/07/18 06:06:44;;;;;;;6.70;5.07;;;17.30;99.90;;;;;;5012224;28;20994;-61
2023/07/18 06:09:12;;;;;;;13.40;6.90;;;17.40;99.90;;;;;;5012253;28;20473;-61
2023/07/18 06:11:39;;;;;;;8.13;5.90;;;17.50;99.90;;;;;;5021237;28;20565;-61
2023/07/18 06:14:06;;;;;;;11.00;6.07;;;17.60;99.90;;;;;;5023507;28;21080;-61
2023/07/18 06:16:34;;;;;;;8.67;6.33;;;17.70;99.90;;;;;;5041998;28;20576;-61
2023/07/18 06:19:01;;;;;;;7.50;5.10;;;17.80;99.90;;;;;;5054531;28;20465;-61
2023/07/18 06:21:28;;;;;;;9.00;6.20;;;17.90;99.90;;;;;;5040140;28;20486;-61
2023/07/18 06:23:55;;;;;;;6.13;5.17;;;18.10;99.90;;;;;;5049693;28;20641;-61
2023/07/18 06:26:23;;;;;;;10.53;7.23;;;18.10;99.90;;;;;;5038638;28;20483;-62
2023/07/18 06:28:51;;;;;;;6.90;4.93;;;18.30;99.50;;;;;;5002485;28;20842;-61
2023/07/18 06:31:18;;;;;;;10.23;6.87;;;18.40;99.90;;;;;;5027387;28;20716;-61
2023/07/18 06:33:47;;;;;;;6.23;5.63;;;18.60;99.40;;;;;;5000142;28;20570;-62
2023/07/18 06:36:15;;;;;;;8.17;6.83;;;18.60;99.10;;;;;;5019049;28;20492;-62
2023/07/18 06:38:42;;;;;;;9.23;6.00;;;18.70;99.50;;;;;;5029561;28;20895;-61
2023/07/18 06:41:09;;;;;;;8.10;5.43;;;18.90;99.10;;;;;;5034065;28;20537;-62
2023/07/18 06:43:36;;;;;;;7.50;5.50;;;19.30;99.30;;;;;;5015335;28;20487;-62
2023/07/18 06:46:02;;;;;;;6.00;4.70;;;19.20;98.30;;;;;;5015947;28;20499;-62
2023/07/18 06:48:29;;;;;;;8.90;5.20;;;19.20;98.80;;;;;;5032811;28;20491;-61
2023/07/18 06:50:59;;;;;;;8.50;5.57;;;19.50;98.20;;;;;;5025492;28;20495;-62
2023/07/18 06:53:26;;;;;;;9.43;6.40;;;19.70;98.00;;;;;;5009864;28;20520;-62
2023/07/18 06:55:54;;;;;;;8.20;5.17;;;19.80;98.40;;;;;;5033689;28;20497;-61
2023/07/18 06:58:21;;;;;;;11.07;6.87;;;20.00;98.30;;;;;;5031013;28;20517;-63
2023/07/18 07:00:49;;;;;;;6.13;5.03;;;20.30;98.30;;;;;;5027147;28;20481;-61
2023/07/18 07:03:18;;;;;;;4.87;4.23;;;20.50;97.90;;;;;;5018566;28;20839;-62
2023/07/18 07:05:45;;;;;;;6.47;4.40;;;20.60;97.50;;;;;;5032752;28;20516;-62
2023/07/18 07:08:13;;;;;;;8.70;6.77;;;21.00;96.70;;;;;;5025432;28;20520;-61
2023/07/18 07:10:41;;;;;;;8.37;5.17;;;21.40;96.00;;;;;;5024651;28;20482;-62
2023/07/18 07:13:09;;;;;;;7.83;4.97;;;21.40;96.40;;;;;;5014368;28;20526;-62
2023/07/18 07:15:36;;;;;;;6.17;3.77;;;21.70;95.80;;;;;;5024128;28;20491;-62
2023/07/18 07:18:03;;;;;;;9.63;5.50;;;22.10;93.40;;;;;;5013646;28;20489;-63
2023/07/18 07:20:31;;;;;;;8.60;4.23;;;22.30;93.10;;;;;;5017040;28;20493;-64
2023/07/18 07:22:58;;;;;;;5.23;4.00;;;22.40;92.10;;;;;;5024968;28;20478;-63
2023/07/18 07:25:28;;;;;;;7.83;5.40;;;22.60;93.10;;;;;;5000729;28;21016;-61
2023/07/18 07:27:55;;;;;;;7.93;4.50;;;22.70;92.40;;;;;;5027359;28;20490;-61
2023/07/18 07:30:22;;;;;;;6.77;5.73;;;22.90;91.80;;;;;;5036819;28;20482;-62
2023/07/18 07:32:51;;;;;;;4.40;4.00;;;23.10;90.50;;;;;;5024177;28;20832;-61
2023/07/18 07:35:19;;;;;;;6.13;5.63;;;23.50;90.40;;;;;;5022605;28;21215;-61
2023/07/18 07:37:46;;;;;;;7.27;4.37;;;23.60;90.40;;;;;;5026163;28;20877;-62
2023/07/18 07:40:13;;;;;;;5.97;5.37;;;24.10;90.50;;;;;;5046847;28;21122;-61
2023/07/18 07:42:43;;;;;;;7.60;4.10;;;24.20;88.90;;;;;;5054985;28;20563;-61
2023/07/18 07:45:11;;;;;;;3.60;3.27;;;24.20;89.70;;;;;;5004116;28;20498;-62
2023/07/18 07:47:37;;;;;;;4.97;4.37;;;24.40;86.60;;;;;;5023042;28;20486;-62
2023/07/18 07:50:05;;;;;;;4.13;3.60;;;24.60;87.60;;;;;;5014918;28;20497;-61
2023/07/18 07:52:32;;;;;;;4.37;3.30;;;24.70;85.90;;;;;;5050825;28;20484;-62
2023/07/18 07:54:59;;;;;;;5.30;3.63;;;24.90;86.20;;;;;;5032788;28;20482;-62
2023/07/18 07:57:26;;;;;;;5.43;4.10;;;25.00;83.60;;;;;;5020735;28;20517;-62
2023/07/18 07:59:54;;;;;;;4.20;3.60;;;25.20;83.90;;;;;;5025096;28;20485;-61
2023/07/18 08:02:22;;;;;;;6.20;3.83;;;25.30;85.00;;;;;;5028089;28;20468;-62
2023/07/18 08:04:49;;;;;;;8.80;3.93;;;25.50;84.20;;;;;;5020386;28;20604;-62
2023/07/18 08:07:17;;;;;;;4.77;4.47;;;25.70;82.20;;;;;;5027767;28;20553;-62
2023/07/18 08:09:44;;;;;;;18.53;3.90;;;25.70;83.80;;;;;;5020877;28;20486;-62
2023/07/18 08:12:12;;;;;;;9.20;5.33;;;25.60;79.90;;;;;;5024507;28;20497;-62
2023/07/18 08:14:39;;;;;;;4.23;2.93;;;25.60;81.10;;;;;;5030635;28;20495;-62
2023/07/18 08:17:08;;;;;;;4.60;3.50;;;26.00;81.30;;;;;;5029617;28;20458;-62
2023/07/18 08:19:35;;;;;;;4.70;3.33;;;26.40;82.00;;;;;;5017464;28;20484;-62
2023/07/18 08:22:03;;;;;;;7.77;2.87;;;26.50;77.80;;;;;;5016550;28;20479;-63
2023/07/18 08:24:30;;;;;;;9.07;4.03;;;26.50;80.10;;;;;;5025428;28;20491;-63
2023/07/18 08:26:57;;;;;;;5.50;3.30;;;26.60;81.40;;;;;;5018971;28;20479;-63
2023/07/18 08:29:25;;;;;;;4.30;3.90;;;26.80;82.70;;;;;;5016094;28;20645;-63
2023/07/18 08:31:52;;;;;;;4.73;3.13;;;26.80;78.10;;;;;;5041591;28;20490;-63
2023/07/18 08:34:21;;;;;;;6.40;4.70;;;26.70;77.20;;;;;;5026034;28;20929;-63
2023/07/18 08:36:48;;;;;;;10.60;3.10;;;26.90;81.90;;;;;;5027274;28;20493;-63
2023/07/18 08:39:15;;;;;;;7.30;4.10;;;27.10;80.40;;;;;;5040483;28;20474;-63
2023/07/18 08:41:44;;;;;;;7.30;3.47;;;28.50;80.10;;;;;;5015850;28;20485;-63
2023/07/18 08:44:13;;;;;;;8.20;3.53;;;27.10;74.00;;;;;;5016538;28;20514;-63
2023/07/18 08:46:42;;;;;;;3.30;3.00;;;27.10;77.40;;;;;;5035745;28;20478;-63
2023/07/18 08:49:12;;;;;;;4.57;3.30;;;27.10;78.70;;;;;;5025776;28;20499;-64
2023/07/18 08:51:40;;;;;;;7.70;3.80;;;27.30;77.20;;;;;;5026720;28;21472;-64
2023/07/18 08:54:07;;;;;;;5.00;3.03;;;27.40;78.40;;;;;;5012496;28;21018;-65
2023/07/18 08:56:34;;;;;;;4.20;3.30;;;27.50;78.10;;;;;;5029064;28;20544;-62
2023/07/18 08:59:02;;;;;;;3.43;2.73;;;27.80;78.30;;;;;;5027943;28;20726;-62
2023/07/18 09:01:30;;;;;;;3.67;3.10;;;27.90;77.00;;;;;;5022070;28;21023;-63
2023/07/18 09:03:56;;;;;;;4.80;3.60;;;28.00;75.70;;;;;;5025035;28;20582;-62
2023/07/18 09:06:24;;;;;;;4.77;3.77;;;28.10;76.80;;;;;;5035885;28;20448;-63
2023/07/18 09:08:55;;;;;;;4.77;3.00;;;28.20;75.70;;;;;;5023692;28;20466;-63
2023/07/18 09:11:22;;;;;;;5.63;3.60;;;28.40;75.00;;;;;;5031046;28;20506;-63
2023/07/18 09:13:49;;;;;;;4.00;3.17;;;28.40;70.10;;;;;;5021405;28;20714;-63
2023/07/18 09:16:17;;;;;;;6.27;4.63;;;28.00;75.00;;;;;;5031455;28;20454;-63
2023/07/18 09:18:44;;;;;;;13.37;4.67;;;28.10;75.00;;;;;;5028725;28;20942;-63
2023/07/18 09:21:12;;;;;;;4.77;3.47;;;28.20;73.00;;;;;;5011064;28;20482;-63
2023/07/18 09:23:40;;;;;;;7.13;2.80;;;28.00;74.40;;;;;;5033580;28;20483;-62
2023/07/18 09:26:11;;;;;;;4.83;3.50;;;28.20;73.00;;;;;;5030375;28;20988;-63
2023/07/18 09:28:38;;;;;;;6.37;3.17;;;28.30;73.50;;;;;;5027161;28;20962;-62
2023/07/18 09:31:16;;;;;;;3.83;2.50;;;28.20;74.00;;;;;;5027270;28;20495;-63
2023/07/18 09:33:44;;;;;;;4.20;3.13;;;28.00;71.60;;;;;;5018967;28;20540;-62
2023/07/18 09:36:16;;;;;;;4.10;3.20;;;27.80;72.00;;;;;;5027407;28;20437;-63
2023/07/18 09:38:44;;;;;;;5.70;2.73;;;27.40;70.60;;;;;;5049147;28;20461;-63
2023/07/18 09:41:13;;;;;;;3.77;3.47;;;27.40;73.10;;;;;;5040870;28;20461;-63
2023/07/18 09:43:42;;;;;;;4.70;3.20;;;27.50;72.70;;;;;;5026072;28;20834;-63
2023/07/18 09:46:12;;;;;;;4.17;2.93;;;27.60;71.20;;;;;;5037011;28;21013;-63
2023/07/18 09:48:40;;;;;;;4.73;3.10;;;27.80;75.70;;;;;;5024612;28;20488;-64
2023/07/18 09:51:10;;;;;;;5.77;3.93;;;27.50;68.60;;;;;;5017592;28;20500;-64
2023/07/18 09:53:37;;;;;;;3.73;3.13;;;27.70;73.40;;;;;;4998219;28;20916;-64
2023/07/18 09:56:05;;;;;;;6.30;3.37;;;27.70;73.60;;;;;;5033449;28;20457;-63
2023/07/18 09:58:38;;;;;;;4.53;3.30;;;27.60;72.50;;;;;;5038797;28;20988;-63
2023/07/18 10:01:09;;;;;;;9.20;3.77;;;27.60;72.80;;;;;;5032941;28;20455;-63
2023/07/18 10:03:38;;;;;;;3.63;3.10;;;27.60;72.50;;;;;;5031101;28;20706;-63
2023/07/18 10:06:10;;;;;;;4.30;3.77;;;27.70;75.70;;;;;;5024742;28;20850;-62
2023/07/18 10:08:37;;;;;;;4.30;2.57;;;27.80;73.30;;;;;;5028697;28;20481;-63
2023/07/18 10:11:08;;;;;;;3.37;3.17;;;27.80;74.80;;;;;;5060171;28;20464;-63
2023/07/18 10:13:42;;;;;;;5.10;3.03;;;28.10;74.60;;;;;;5035131;28;20499;-62
2023/07/18 10:16:20;;;;;;;4.70;3.27;;;28.40;76.30;;;;;;5037140;28;20491;-63
2023/07/18 10:18:48;;;;;;;3.40;3.10;;;28.60;73.90;;;;;;5015381;28;20468;-63
2023/07/18 10:21:27;;;;;;;7.80;4.03;;;28.90;74.10;;;;;;5041079;28;20470;-63
2023/07/18 10:23:54;;;;;;;3.40;2.97;;;30.00;75.30;;;;;;5005339;28;20502;-62
2023/07/18 10:26:30;;;;;;;3.90;3.60;;;29.40;68.20;;;;;;5020676;28;20474;-63
2023/07/18 10:29:01;;;;;;;4.93;3.33;;;29.40;67.70;;;;;;5017396;28;20708;-64
2023/07/18 10:31:34;;;;;;;6.37;3.53;;;29.30;67.70;;;;;;4989253;28;20469;-63
2023/07/18 10:34:09;;;;;;;6.27;4.57;;;28.70;67.00;;;;;;4996458;28;20475;-63
2023/07/18 10:36:37;;;;;;;5.10;3.30;;;28.30;67.70;;;;;;5001599;28;20464;-63
2023/07/18 10:39:09;;;;;;;6.10;3.27;;;28.00;66.90;;;;;;5005733;28;20465;-63
2023/07/18 10:41:37;;;;;;;4.10;3.70;;;28.10;69.50;;;;;;4998172;28;20492;-63
2023/07/18 10:44:05;;;;;;;5.40;3.80;;;28.30;68.40;;;;;;5011090;28;20484;-63
2023/07/18 10:46:38;;;;;;;9.57;3.77;;;28.40;70.90;;;;;;5019078;28;20449;-63
2023/07/18 10:49:06;;;;;;;4.70;3.10;;;28.50;68.00;;;;;;5020366;28;21059;-63
2023/07/18 10:51:34;;;;;;;5.73;3.33;;;28.50;71.80;;;;;;5006939;28;20504;-63
2023/07/18 10:54:02;;;;;;;7.97;4.27;;;28.50;71.20;;;;;;5017714;28;20454;-63
2023/07/18 10:56:29;;;;;;;5.53;4.27;;;28.50;68.60;;;;;;5028443;28;21020;-63
2023/07/18 10:58:57;;;;;;;6.10;3.20;;;28.50;70.10;;;;;;5039413;28;20485;-64
2023/07/18 11:01:28;;;;;;;4.30;3.90;;;28.30;70.60;;;;;;5038138;27;20485;-64
2023/07/18 11:03:55;;;;;;;5.27;3.40;;;28.30;72.20;;;;;;5058154;28;20488;-65
2023/07/18 11:06:23;;;;;;;4.80;4.40;;;28.00;68.90;;;;;;5053101;28;20474;-64
2023/07/18 11:08:49;;;;;;;4.73;3.30;;;27.70;68.20;;;;;;5034378;28;20484;-64
2023/07/18 11:11:18;;;;;;;5.43;5.00;;;27.80;70.00;;;;;;5039336;27;20672;-64
2023/07/18 11:13:45;;;;;;;6.47;3.77;;;27.90;70.80;;;;;;5051339;28;20543;-64
2023/07/18 11:16:14;;;;;;;10.03;4.37;;;27.80;69.10;;;;;;5030310;28;20487;-64
2023/07/18 11:18:44;;;;;;;5.23;4.07;;;27.90;69.60;;;;;;5019967;28;20457;-64
2023/07/18 11:21:13;;;;;;;6.17;4.67;;;28.00;71.70;;;;;;5037646;28;20466;-64
2023/07/18 11:23:41;;;;;;;4.00;3.60;;;28.40;74.30;;;;;;5033090;28;20679;-63
2023/07/18 11:26:13;;;;;;;5.70;4.30;;;28.80;72.50;;;;;;5007361;28;20490;-63
2023/07/18 11:28:40;;;;;;;3.20;2.90;;;29.20;67.10;;;;;;5003732;28;20512;-64
2023/07/18 11:31:07;;;;;;;5.00;3.63;;;29.40;72.30;;;;;;5045967;28;20771;-63
2023/07/18 11:33:34;;;;;;;5.90;3.80;;;29.50;72.10;;;;;;5051483;28;20456;-63
2023/07/18 11:36:09;;;;;;;5.67;3.50;;;30.10;72.70;;;;;;5050574;28;20485;-64
2023/07/18 11:38:37;;;;;;;6.67;4.30;;;30.10;71.80;;;;;;5033566;28;20531;-64
2023/07/18 11:41:05;;;;;;;5.40;3.53;;;30.30;68.00;;;;;;5062989;28;20991;-64
2023/07/18 11:43:32;;;;;;;6.33;4.37;;;30.00;67.80;;;;;;5043189;28;20473;-64
2023/07/18 11:45:59;;;;;;;4.57;3.90;;;29.80;66.30;;;;;;5041779;27;20475;-63
2023/07/18 11:48:37;;;;;;;4.97;4.00;;;29.80;70.20;;;;;;5043509;28;20914;-64
2023/07/18 11:51:06;;;;;;;3.90;3.50;;;29.60;65.10;;;;;;5029656;28;20565;-63
2023/07/18 11:53:33;;;;;;;6.10;4.33;;;29.60;66.20;;;;;;5050874;28;20558;-64
2023/07/18 11:56:00;;;;;;;5.83;4.00;;;29.70;68.20;;;;;;5044746;28;21009;-64
2023/07/18 11:58:26;;;;;;;4.50;4.10;;;29.80;70.80;;;;;;5016025;28;20486;-64
2023/07/18 12:01:00;;;;;;;5.17;3.97;;;29.40;67.10;;;;;;5023569;28;20820;-64
2023/07/18 12:03:26;;;;;;;5.33;3.90;;;29.50;69.50;;;;;;5020853;28;20513;-64
2023/07/18 12:05:53;;;;;;;4.87;3.30;;;29.60;72.20;;;;;;5039761;28;20484;-65
2023/07/18 12:08:21;;;;;;;4.80;4.23;;;29.80;72.60;;;;;;5006836;28;20464;-64
2023/07/18 12:10:49;;;;;;;7.83;4.37;;;29.90;66.70;;;;;;5043535;28;20874;-64
2023/07/18 12:13:16;;;;;;;7.40;4.67;;;29.90;67.50;;;;;;5037669;28;20670;-64
2023/07/18 12:15:42;;;;;;;8.07;3.83;;;30.10;68.40;;;;;;5005517;28;20456;-64
2023/07/18 12:18:09;;;;;;;7.30;3.93;;;30.40;70.40;;;;;;5023587;28;20490;-64
2023/07/18 12:20:36;;;;;;;4.57;4.03;;;30.80;71.60;;;;;;5009797;28;20483;-64
2023/07/18 12:23:03;;;;;;;5.10;3.87;;;30.90;66.90;;;;;;5002558;28;20846;-64
2023/07/18 12:25:32;;;;;;;3.67;3.37;;;30.40;68.90;;;;;;5024985;28;21081;-64
2023/07/18 12:28:00;;;;;;;4.53;4.13;;;30.40;64.70;;;;;;5021346;28;20469;-65
2023/07/18 12:30:30;;;;;;;4.63;3.53;;;30.40;67.80;;;;;;5011831;28;21189;-64
2023/07/18 12:32:57;;;;;;;5.40;3.03;;;30.30;65.60;;;;;;5020264;28;20522;-64
2023/07/18 12:35:24;;;;;;;4.83;2.90;;;30.50;69.60;;;;;;5006489;28;20481;-64
2023/07/18 12:37:50;;;;;;;6.70;3.97;;;30.80;69.30;;;;;;5025097;28;20465;-63
2023/07/18 12:40:18;;;;;;;4.63;3.47;;;30.90;70.00;;;;;;5029690;28;20482;-64
2023/07/18 12:42:46;;;;;;;5.03;3.40;;;31.10;69.50;;;;;;5026898;28;20479;-64
2023/07/18 12:45:13;;;;;;;4.17;3.87;;;31.10;65.50;;;;;;5029250;28;20470;-65
2023/07/18 12:47:41;;;;;;;3.87;3.47;;;31.20;69.00;;;;;;5058934;28;21094;-64
2023/07/18 12:50:08;;;;;;;4.23;3.50;;;31.30;68.00;;;;;;5046940;27;20472;-64